Time;durP1;ratioP1;P1;durP2;ratioP2;P2;SDS_P1;SDS_P2;PMS_P1;PMS_P2;Temp;Humidity;BMP_temperature;BMP_pressure;BME280_temperature;BME280_humidity;BME280_pressure;Samples;Min_cycle;Max_cycle;Signal;HPM_P1;HPM_P2
2021/09/03 00:00:33;;;;;;;15.33;12.10;;;;;;;;;;5016080;28;20440;-80
2021/09/03 00:02:59;;;;;;;15.13;11.50;;;;;;;;;;5034148;28;20416;-81
2021/09/03 00:05:25;;;;;;;15.13;11.90;;;;;;;;;;5033976;28;20440;-80
2021/09/03 00:07:51;;;;;;;16.87;13.67;;;;;;;;;;5033642;28;21005;-79
2021/09/03 00:10:18;;;;;;;13.40;11.93;;;;;;;;;;5033551;28;20505;-80
2021/09/03 00:12:44;;;;;;;19.67;13.17;;;;;;;;;;5033955;28;20775;-82
2021/09/03 00:15:12;;;;;;;18.20;12.60;;;;;;;;;;5033495;28;20412;-79
2021/09/03 00:17:38;;;;;;;21.87;13.13;;;;;;;;;;5033221;28;20787;-79
2021/09/03 00:20:05;;;;;;;13.20;11.10;;;;;;;;;;5033278;28;20475;-79
2021/09/03 00:22:31;;;;;;;14.20;11.10;;;;;;;;;;5015859;28;20516;-82
2021/09/03 00:24:57;;;;;;;14.77;10.70;;;;;;;;;;5033907;28;20551;-79
2021/09/03 00:27:23;;;;;;;16.73;11.77;;;;;;;;;;5033660;28;20794;-81
2021/09/03 00:29:49;;;;;;;16.53;11.70;;;;;;;;;;5034134;28;20791;-77
2021/09/03 00:32:15;;;;;;;13.33;11.77;;;;;;;;;;5034087;28;20380;-82
2021/09/03 00:34:41;;;;;;;12.10;10.03;;;;;;;;;;5033890;28;20408;-80
2021/09/03 00:37:07;;;;;;;13.80;10.30;;;;;;;;;;5033693;28;20409;-81
2021/09/03 00:39:33;;;;;;;13.37;11.33;;;;;;;;;;5032884;28;20449;-80
2021/09/03 00:41:59;;;;;;;13.83;11.40;;;;;;;;;;5033252;28;20470;-79
2021/09/03 00:44:25;;;;;;;16.20;12.23;;;;;;;;;;5033535;28;20448;-82
2021/09/03 00:46:51;;;;;;;19.77;12.27;;;;;;;;;;5033424;28;20460;-81
2021/09/03 00:49:17;;;;;;;12.30;11.00;;;;;;;;;;5032981;28;20433;-78
2021/09/03 00:51:43;;;;;;;12.77;10.47;;;;;;;;;;5015593;28;20423;-82
2021/09/03 00:54:09;;;;;;;18.87;14.03;;;;;;;;;;5033061;28;20423;-81
2021/09/03 00:56:35;;;;;;;20.80;13.23;;;;;;;;;;5033328;28;20417;-81
2021/09/03 00:59:01;;;;;;;14.77;12.43;;;;;;;;;;5032992;28;20428;-79
2021/09/03 01:01:27;;;;;;;14.77;12.47;;;;;;;;;;5033143;28;20928;-77
2021/09/03 01:03:53;;;;;;;14.10;11.07;;;;;;;;;;5033042;28;20502;-78
2021/09/03 01:06:20;;;;;;;17.03;12.60;;;;;;;;;;5033007;28;20614;-78
2021/09/03 01:08:46;;;;;;;14.33;11.50;;;;;;;;;;5032686;28;20384;-80
2021/09/03 01:11:12;;;;;;;14.37;11.93;;;;;;;;;;5033020;28;20384;-79
2021/09/03 01:13:38;;;;;;;15.57;12.60;;;;;;;;;;5033078;28;20874;-78
2021/09/03 01:16:04;;;;;;;17.97;14.13;;;;;;;;;;5032950;28;20776;-79
2021/09/03 01:18:30;;;;;;;18.03;11.83;;;;;;;;;;5032796;28;20452;-79
2021/09/03 01:20:56;;;;;;;14.53;11.93;;;;;;;;;;5032743;28;20537;-82
2021/09/03 01:24:00;;;;;;;13.77;12.37;;;;;;;;;;5033331;28;20449;-77
2021/09/03 01:26:26;;;;;;;15.97;11.00;;;;;;;;;;5003721;28;20835;-81
2021/09/03 01:28:52;;;;;;;13.90;11.67;;;;;;;;;;5036223;28;20519;-80
2021/09/03 01:31:18;;;;;;;14.07;10.77;;;;;;;;;;5019427;28;20444;-77
2021/09/03 01:33:44;;;;;;;14.20;11.63;;;;;;;;;;5037009;28;20865;-81
2021/09/03 01:36:10;;;;;;;14.70;11.67;;;;;;;;;;5036778;28;20418;-80
2021/09/03 01:38:37;;;;;;;13.13;10.57;;;;;;;;;;5036505;28;20420;-78
2021/09/03 01:41:03;;;;;;;15.83;11.13;;;;;;;;;;5036531;28;20829;-78
2021/09/03 01:43:29;;;;;;;13.00;10.80;;;;;;;;;;5036530;28;20428;-82
2021/09/03 01:45:55;;;;;;;13.13;11.73;;;;;;;;;;5036444;28;20463;-80
2021/09/03 01:48:21;;;;;;;13.13;10.53;;;;;;;;;;5036380;28;20425;-79
2021/09/03 01:50:47;;;;;;;12.27;10.47;;;;;;;;;;5036272;28;20440;-77
2021/09/03 01:53:13;;;;;;;12.93;9.83;;;;;;;;;;5036509;28;20409;-80
2021/09/03 01:55:39;;;;;;;12.93;10.20;;;;;;;;;;5036461;28;20898;-80
2021/09/03 01:58:05;;;;;;;14.90;10.63;;;;;;;;;;5036441;28;20454;-77
2021/09/03 02:00:31;;;;;;;14.20;12.10;;;;;;;;;;5036003;28;20436;-78
2021/09/03 02:02:57;;;;;;;16.10;10.23;;;;;;;;;;5035996;28;20409;-77
2021/09/03 02:05:23;;;;;;;13.33;11.43;;;;;;;;;;5036174;28;20760;-78
2021/09/03 02:07:49;;;;;;;12.67;10.90;;;;;;;;;;5036052;28;20611;-80
2021/09/03 02:10:15;;;;;;;13.33;11.83;;;;;;;;;;5035726;28;20421;-77
2021/09/03 02:12:41;;;;;;;12.27;10.43;;;;;;;;;;5035982;28;20943;-77
2021/09/03 02:15:08;;;;;;;12.90;10.20;;;;;;;;;;5035938;28;20408;-79
2021/09/03 02:17:34;;;;;;;15.90;11.80;;;;;;;;;;5018002;28;20430;-77
2021/09/03 02:19:59;;;;;;;14.63;12.10;;;;;;;;;;5035511;28;20437;-78
2021/09/03 02:22:25;;;;;;;13.27;11.43;;;;;;;;;;5035817;28;20474;-79
2021/09/03 02:24:51;;;;;;;13.33;10.83;;;;;;;;;;5035641;28;20440;-78
2021/09/03 02:27:17;;;;;;;22.50;12.40;;;;;;;;;;5035628;28;20456;-80
2021/09/03 02:29:43;;;;;;;14.70;10.87;;;;;;;;;;5035422;28;20429;-78
2021/09/03 02:32:09;;;;;;;13.70;10.43;;;;;;;;;;5035740;28;20451;-80
2021/09/03 02:34:35;;;;;;;21.13;10.30;;;;;;;;;;5035769;28;20452;-79
2021/09/03 02:37:01;;;;;;;16.03;11.07;;;;;;;;;;5035626;28;20424;-79
2021/09/03 02:39:27;;;;;;;12.23;10.87;;;;;;;;;;5034130;28;20933;-81
2021/09/03 02:41:53;;;;;;;14.20;10.13;;;;;;;;;;5035683;28;20730;-79
2021/09/03 02:44:19;;;;;;;17.33;11.40;;;;;;;;;;5035450;28;20416;-78
2021/09/03 02:46:45;;;;;;;12.57;10.20;;;;;;;;;;5035394;28;20468;-81
2021/09/03 02:49:11;;;;;;;15.77;10.00;;;;;;;;;;5035131;28;20429;-77
2021/09/03 02:51:37;;;;;;;12.27;10.33;;;;;;;;;;5035415;28;20441;-81
2021/09/03 02:54:03;;;;;;;15.83;9.90;;;;;;;;;;5035353;28;20417;-81
2021/09/03 02:56:29;;;;;;;14.40;11.50;;;;;;;;;;5035266;28;20417;-82
2021/09/03 02:58:55;;;;;;;13.80;10.77;;;;;;;;;;5034720;28;20428;-80
2021/09/03 03:01:21;;;;;;;13.87;10.90;;;;;;;;;;5035107;28;20445;-77
2021/09/03 03:03:47;;;;;;;13.93;11.70;;;;;;;;;;5035194;28;20471;-79
2021/09/03 03:06:13;;;;;;;14.20;11.10;;;;;;;;;;5034885;28;20801;-79
2021/09/03 03:08:39;;;;;;;12.97;11.20;;;;;;;;;;5034803;28;20394;-78
2021/09/03 03:11:05;;;;;;;15.83;11.40;;;;;;;;;;5034753;28;20443;-81
2021/09/03 03:13:31;;;;;;;18.07;10.50;;;;;;;;;;5034896;28;20890;-80
2021/09/03 03:15:57;;;;;;;13.10;11.20;;;;;;;;;;5034749;28;20409;-78
2021/09/03 03:18:23;;;;;;;13.30;11.17;;;;;;;;;;5034827;28;20397;-79
2021/09/03 03:20:50;;;;;;;14.23;10.07;;;;;;;;;;5034330;28;20437;-80
2021/09/03 03:23:17;;;;;;;13.50;10.73;;;;;;;;;;5034771;28;20423;-78
2021/09/03 03:25:43;;;;;;;13.30;10.60;;;;;;;;;;5035928;28;20401;-78
2021/09/03 03:28:09;;;;;;;13.43;10.43;;;;;;;;;;5036419;28;20401;-79
2021/09/03 03:30:35;;;;;;;13.33;11.23;;;;;;;;;;5034488;28;20427;-78
2021/09/03 03:33:01;;;;;;;16.77;12.80;;;;;;;;;;5034595;28;20404;-77
2021/09/03 03:35:27;;;;;;;13.83;11.60;;;;;;;;;;5035005;28;20496;-74
2021/09/03 03:37:53;;;;;;;13.30;11.30;;;;;;;;;;5034501;28;20495;-78
2021/09/03 03:40:19;;;;;;;13.67;11.57;;;;;;;;;;5034129;28;20449;-79
2021/09/03 03:42:46;;;;;;;15.47;12.20;;;;;;;;;;5034573;28;20470;-78
2021/09/03 03:45:12;;;;;;;12.80;10.83;;;;;;;;;;5034354;28;20409;-79
2021/09/03 03:47:38;;;;;;;20.50;13.87;;;;;;;;;;5034185;28;20506;-78
2021/09/03 03:50:05;;;;;;;15.30;12.73;;;;;;;;;;5033707;28;20758;-78
2021/09/03 03:52:31;;;;;;;16.50;12.70;;;;;;;;;;5034107;28;20931;-78
2021/09/03 03:54:57;;;;;;;17.37;12.70;;;;;;;;;;5034082;28;20490;-78
2021/09/03 03:57:23;;;;;;;16.13;13.67;;;;;;;;;;5034000;28;20867;-79
2021/09/03 03:59:49;;;;;;;17.63;13.20;;;;;;;;;;5033621;28;20432;-79
2021/09/03 04:02:15;;;;;;;16.93;12.07;;;;;;;;;;5034210;28;20409;-79
2021/09/03 04:04:41;;;;;;;17.93;13.20;;;;;;;;;;5034168;28;20423;-80
2021/09/03 04:07:07;;;;;;;13.80;12.13;;;;;;;;;;5033955;28;20548;-77
2021/09/03 04:09:33;;;;;;;13.73;11.23;;;;;;;;;;5033528;28;20447;-79
2021/09/03 04:11:59;;;;;;;14.67;11.87;;;;;;;;;;5038925;28;20409;-76
2021/09/03 04:14:25;;;;;;;16.43;11.83;;;;;;;;;;5034997;28;20511;-77
2021/09/03 04:16:51;;;;;;;14.77;11.87;;;;;;;;;;5033923;28;20413;-78
2021/09/03 04:19:17;;;;;;;14.23;11.40;;;;;;;;;;5033172;28;20805;-78
2021/09/03 04:21:43;;;;;;;23.17;12.23;;;;;;;;;;5033291;28;20413;-79
2021/09/03 04:24:09;;;;;;;15.20;12.50;;;;;;;;;;5033607;28;20908;-82
2021/09/03 04:26:35;;;;;;;19.43;11.97;;;;;;;;;;5033623;28;20499;-78
2021/09/03 04:29:01;;;;;;;19.70;13.50;;;;;;;;;;5033159;28;20471;-78
2021/09/03 04:31:27;;;;;;;17.87;13.20;;;;;;;;;;5033899;28;20405;-79
2021/09/03 04:33:53;;;;;;;17.53;12.47;;;;;;;;;;5033397;28;20424;-79
2021/09/03 04:36:19;;;;;;;14.37;12.33;;;;;;;;;;5033464;28;20878;-79
2021/09/03 04:38:45;;;;;;;22.03;13.40;;;;;;;;;;5033034;28;20451;-79
2021/09/03 04:41:11;;;;;;;15.67;12.93;;;;;;;;;;5015681;28;20518;-80
2021/09/03 04:43:38;;;;;;;17.83;14.40;;;;;;;;;;5033269;28;20572;-80
2021/09/03 04:46:04;;;;;;;15.90;13.13;;;;;;;;;;5033486;28;20460;-80
2021/09/03 04:48:30;;;;;;;15.47;12.20;;;;;;;;;;5033299;28;20416;-78
2021/09/03 04:50:56;;;;;;;15.23;12.13;;;;;;;;;;5032994;28;20429;-78
2021/09/03 04:53:22;;;;;;;13.30;10.83;;;;;;;;;;5033480;28;20459;-78
2021/09/03 04:55:48;;;;;;;12.63;10.90;;;;;;;;;;5033148;28;20420;-78
2021/09/03 04:58:14;;;;;;;17.20;11.67;;;;;;;;;;5033232;28;20973;-80
2021/09/03 05:00:40;;;;;;;21.30;13.40;;;;;;;;;;5032561;28;20432;-77
2021/09/03 05:03:06;;;;;;;14.03;12.03;;;;;;;;;;5014403;28;20413;-78
2021/09/03 05:05:32;;;;;;;14.53;13.03;;;;;;;;;;5030075;28;20408;-77
2021/09/03 05:07:58;;;;;;;18.33;14.20;;;;;;;;;;5032849;28;20504;-78
2021/09/03 05:10:24;;;;;;;19.80;14.25;;;;;;;;;;5032408;28;20433;-80
2021/09/03 05:12:50;;;;;;;19.03;13.63;;;;;;;;;;5032989;28;20185;-78
2021/09/03 05:15:17;;;;;;;16.13;12.40;;;;;;;;;;5032969;28;20413;-78
2021/09/03 05:17:47;;;;;;;19.30;13.70;;;;;;;;;;5032893;28;20417;-78
2021/09/03 05:20:13;;;;;;;17.20;12.30;;;;;;;;;;5032634;28;20524;-81
2021/09/03 05:22:39;;;;;;;15.20;13.20;;;;;;;;;;5032803;28;20471;-76
2021/09/03 05:25:08;;;;;;;17.00;12.20;;;;;;;;;;5032899;28;20236;-78
2021/09/03 05:27:34;;;;;;;16.10;11.97;;;;;;;;;;5032765;28;20225;-78
2021/09/03 05:30:00;;;;;;;34.33;14.67;;;;;;;;;;5032250;28;20464;-80
2021/09/03 05:32:26;;;;;;;16.60;13.07;;;;;;;;;;5032656;28;20436;-76
2021/09/03 05:34:52;;;;;;;14.20;12.53;;;;;;;;;;5033168;28;20412;-80
2021/09/03 05:37:18;;;;;;;17.17;11.90;;;;;;;;;;5032897;28;20405;-79
2021/09/03 05:39:44;;;;;;;16.13;12.63;;;;;;;;;;5032363;28;20480;-81
2021/09/03 05:42:11;;;;;;;20.57;13.07;;;;;;;;;;5032733;28;20508;-81
2021/09/03 05:44:37;;;;;;;18.73;13.50;;;;;;;;;;5032844;28;20416;-78
2021/09/03 05:47:03;;;;;;;19.07;14.27;;;;;;;;;;5032832;28;20469;-77
2021/09/03 05:49:29;;;;;;;19.90;13.30;;;;;;;;;;5014733;28;21049;-79
2021/09/03 05:51:55;;;;;;;17.10;13.80;;;;;;;;;;5032679;28;20413;-82
2021/09/03 05:54:21;;;;;;;17.63;14.27;;;;;;;;;;5032574;28;20973;-79
2021/09/03 05:56:47;;;;;;;16.97;13.77;;;;;;;;;;5032583;28;20416;-79
2021/09/03 05:59:13;;;;;;;20.50;12.90;;;;;;;;;;5032297;28;20590;-76
2021/09/03 06:01:39;;;;;;;21.00;13.67;;;;;;;;;;5032736;28;20445;-80
2021/09/03 06:04:05;;;;;;;25.23;14.67;;;;;;;;;;5032737;28;20415;-80
2021/09/03 06:06:32;;;;;;;29.23;14.30;;;;;;;;;;5032538;28;20464;-81
2021/09/03 06:08:58;;;;;;;20.00;13.80;;;;;;;;;;5032356;28;20459;-80
2021/09/03 06:11:26;;;;;;;16.03;13.97;;;;;;;;;;5032739;28;20409;-78
2021/09/03 06:13:56;;;;;;;19.90;14.10;;;;;;;;;;5032990;28;20492;-77
2021/09/03 06:16:22;;;;;;;19.10;16.30;;;;;;;;;;5036115;28;20645;-80
2021/09/03 06:18:48;;;;;;;21.10;14.87;;;;;;;;;;5035604;28;20432;-77
2021/09/03 06:21:15;;;;;;;17.20;14.20;;;;;;;;;;5036018;28;20417;-79
2021/09/03 06:23:41;;;;;;;18.90;14.57;;;;;;;;;;5035873;28;20507;-79
2021/09/03 06:26:07;;;;;;;20.90;15.63;;;;;;;;;;5035668;28;20874;-80
2021/09/03 06:28:33;;;;;;;27.17;14.80;;;;;;;;;;5017583;28;20424;-79
2021/09/03 06:30:59;;;;;;;18.47;15.40;;;;;;;;;;5035539;28;20527;-81
2021/09/03 06:33:25;;;;;;;23.30;15.77;;;;;;;;;;5035701;28;20447;-78
2021/09/03 06:35:52;;;;;;;17.87;14.63;;;;;;;;;;5035713;28;20405;-80
2021/09/03 06:38:18;;;;;;;19.83;15.70;;;;;;;;;;5035557;28;20420;-80
2021/09/03 06:40:44;;;;;;;17.00;15.03;;;;;;;;;;5034938;28;20464;-80
2021/09/03 06:43:10;;;;;;;17.63;14.97;;;;;;;;;;5035474;28;20413;-77
2021/09/03 06:45:35;;;;;;;19.60;15.60;;;;;;;;;;5035513;28;20424;-80
2021/09/03 06:48:02;;;;;;;23.40;15.83;;;;;;;;;;5035454;28;20461;-81
2021/09/03 06:50:28;;;;;;;20.17;15.80;;;;;;;;;;5035340;28;20826;-80
2021/09/03 06:52:54;;;;;;;20.53;15.67;;;;;;;;;;5018077;28;20763;-78
2021/09/03 06:55:20;;;;;;;20.37;15.20;;;;;;;;;;5035501;28;20409;-77
2021/09/03 06:57:46;;;;;;;20.77;16.50;;;;;;;;;;5035261;28;20388;-79
2021/09/03 07:00:12;;;;;;;17.17;15.27;;;;;;;;;;5034724;28;20424;-78
2021/09/03 07:02:39;;;;;;;27.20;17.10;;;;;;;;;;5035198;28;20413;-78
2021/09/03 07:05:05;;;;;;;18.70;16.63;;;;;;;;;;5035136;28;20417;-78
2021/09/03 07:07:31;;;;;;;18.93;15.37;;;;;;;;;;5034903;28;20546;-78
2021/09/03 07:09:57;;;;;;;23.10;17.03;;;;;;;;;;5016891;28;20440;-80
2021/09/03 07:12:24;;;;;;;20.43;16.20;;;;;;;;;;5035177;28;20464;-78
2021/09/03 07:14:50;;;;;;;25.97;16.67;;;;;;;;;;5034859;28;20430;-78
2021/09/03 07:17:17;;;;;;;22.63;18.30;;;;;;;;;;5035004;28;20420;-79
2021/09/03 07:19:43;;;;;;;24.00;17.50;;;;;;;;;;5034485;28;20570;-80
2021/09/03 07:22:09;;;;;;;27.80;17.40;;;;;;;;;;5034911;28;20728;-79
2021/09/03 07:24:36;;;;;;;32.10;19.10;;;;;;;;;;5034427;28;20442;-75
2021/09/03 07:27:02;;;;;;;23.40;16.20;;;;;;;;;;5034331;28;20459;-76
2021/09/03 07:29:28;;;;;;;28.87;17.53;;;;;;;;;;5034106;28;20403;-75
2021/09/03 07:31:54;;;;;;;25.27;17.63;;;;;;;;;;5034542;28;20413;-77
2021/09/03 07:34:20;;;;;;;22.70;17.43;;;;;;;;;;5033997;28;20416;-76
2021/09/03 07:36:46;;;;;;;22.23;16.43;;;;;;;;;;5033674;28;20417;-76
2021/09/03 07:39:17;;;;;;;20.63;17.90;;;;;;;;;;5033143;28;20452;-76
2021/09/03 07:41:43;;;;;;;26.90;18.23;;;;;;;;;;5035432;28;20386;-77
2021/09/03 07:44:09;;;;;;;26.67;18.00;;;;;;;;;;5034189;28;20515;-75
2021/09/03 07:46:35;;;;;;;28.10;18.70;;;;;;;;;;5034465;28;20435;-75
2021/09/03 07:49:03;;;;;;;24.13;20.30;;;;;;;;;;5033984;28;20415;-79
2021/09/03 07:51:29;;;;;;;24.63;18.30;;;;;;;;;;5034318;28;20787;-77
2021/09/03 07:53:55;;;;;;;25.73;17.00;;;;;;;;;;5016524;28;20392;-79
2021/09/03 07:56:21;;;;;;;27.60;19.57;;;;;;;;;;5034188;28;20777;-78
2021/09/03 07:58:47;;;;;;;29.17;20.90;;;;;;;;;;5033769;28;20508;-79
2021/09/03 08:01:13;;;;;;;23.63;20.27;;;;;;;;;;5034183;28;20412;-77
2021/09/03 08:03:39;;;;;;;31.20;20.10;;;;;;;;;;5034225;28;20413;-78
2021/09/03 08:06:05;;;;;;;28.43;20.33;;;;;;;;;;5033938;28;20419;-77
2021/09/03 08:08:31;;;;;;;29.27;20.50;;;;;;;;;;5033875;28;20773;-79
2021/09/03 08:10:57;;;;;;;28.43;18.57;;;;;;;;;;5033531;28;20478;-79
2021/09/03 08:13:23;;;;;;;25.73;17.60;;;;;;;;;;5033587;28;20413;-78
2021/09/03 08:15:49;;;;;;;23.67;16.93;;;;;;;;;;5033894;28;20405;-78
2021/09/03 08:18:15;;;;;;;22.57;16.40;;;;;;;;;;5033241;28;20380;-76
2021/09/03 08:20:44;;;;;;;19.30;16.07;;;;;;;;;;5033315;28;20854;-79
2021/09/03 08:23:10;;;;;;;19.00;14.47;;;;;;;;;;5033678;28;20387;-79
2021/09/03 08:25:36;;;;;;;27.53;17.03;;;;;;;;;;5032918;28;20435;-78
2021/09/03 08:28:04;;;;;;;20.07;15.30;;;;;;;;;;5033328;28;20468;-75
2021/09/03 08:30:30;;;;;;;19.40;13.93;;;;;;;;;;5032827;28;20407;-76
2021/09/03 08:32:56;;;;;;;14.23;12.07;;;;;;;;;;5033374;28;20838;-76
2021/09/03 08:35:23;;;;;;;17.07;12.63;;;;;;;;;;5033426;28;20413;-76
2021/09/03 08:37:49;;;;;;;14.23;11.73;;;;;;;;;;5032790;28;20475;-77
2021/09/03 08:40:15;;;;;;;16.83;12.03;;;;;;;;;;5032981;28;20964;-77
2021/09/03 08:42:42;;;;;;;18.17;11.97;;;;;;;;;;5033287;28;20844;-76
2021/09/03 08:45:10;;;;;;;14.10;11.63;;;;;;;;;;5033071;28;20417;-77
2021/09/03 08:47:37;;;;;;;18.03;11.40;;;;;;;;;;5032962;28;20871;-77
2021/09/03 08:50:03;;;;;;;16.47;10.00;;;;;;;;;;5032762;28;20433;-77
2021/09/03 08:52:30;;;;;;;12.43;9.97;;;;;;;;;;5033243;28;20435;-79
2021/09/03 08:54:56;;;;;;;11.83;10.10;;;;;;;;;;5015830;28;20463;-77
2021/09/03 08:57:21;;;;;;;14.40;9.43;;;;;;;;;;5033456;28;20412;-79
2021/09/03 08:59:47;;;;;;;15.53;11.87;;;;;;;;;;5032654;28;20849;-79
2021/09/03 09:02:15;;;;;;;14.90;10.33;;;;;;;;;;5032827;28;20420;-78
2021/09/03 09:04:42;;;;;;;13.00;9.87;;;;;;;;;;5033295;28;20924;-79
2021/09/03 09:07:09;;;;;;;14.30;10.50;;;;;;;;;;5033074;28;20506;-78
2021/09/03 09:09:36;;;;;;;12.40;10.07;;;;;;;;;;5032775;28;20433;-78
2021/09/03 09:12:05;;;;;;;14.70;10.47;;;;;;;;;;5033055;28;20436;-80
2021/09/03 09:14:51;;;;;;;13.83;10.87;;;;;;;;;;5033103;28;20463;-81
2021/09/03 09:17:28;;;;;;;15.80;9.50;;;;;;;;;;5015091;28;20413;-79
2021/09/03 09:19:54;;;;;;;12.00;9.53;;;;;;;;;;5014710;28;20444;-82
2021/09/03 09:22:20;;;;;;;16.60;10.43;;;;;;;;;;5033018;28;20811;-81
2021/09/03 09:24:47;;;;;;;11.93;9.80;;;;;;;;;;5033200;28;20424;-79
2021/09/03 09:27:22;;;;;;;14.40;10.87;;;;;;;;;;5032924;28;20567;-81
2021/09/03 09:29:48;;;;;;;10.83;9.00;;;;;;;;;;5032555;28;20436;-82
2021/09/03 09:32:14;;;;;;;20.77;11.63;;;;;;;;;;5032775;28;20961;-82
2021/09/03 09:34:43;;;;;;;16.10;10.33;;;;;;;;;;5033005;28;20417;-79
2021/09/03 09:37:11;;;;;;;13.27;10.57;;;;;;;;;;5015230;28;20421;-81
2021/09/03 09:39:56;;;;;;;10.17;8.77;;;;;;;;;;5032502;28;20484;-81
2021/09/03 09:42:28;;;;;;;12.50;9.50;;;;;;;;;;5032794;28;20440;-78
2021/09/03 09:45:04;;;;;;;11.23;9.80;;;;;;;;;;5033125;28;20827;-78
2021/09/03 09:47:30;;;;;;;12.80;9.70;;;;;;;;;;5032752;28;20551;-78
2021/09/03 09:49:56;;;;;;;12.10;10.20;;;;;;;;;;5035765;28;20951;-80
2021/09/03 09:52:35;;;;;;;10.70;9.60;;;;;;;;;;5036676;28;20412;-79
2021/09/03 09:55:02;;;;;;;12.27;10.97;;;;;;;;;;5036392;28;20400;-78
2021/09/03 09:57:31;;;;;;;14.17;10.70;;;;;;;;;;5036081;28;20413;-74
2021/09/03 09:59:57;;;;;;;14.70;9.47;;;;;;;;;;5035252;28;20451;-76
2021/09/03 10:02:23;;;;;;;10.70;9.33;;;;;;;;;;5035549;28;20409;-76
2021/09/03 10:04:49;;;;;;;11.40;10.07;;;;;;;;;;5036223;28;20408;-76
2021/09/03 10:07:16;;;;;;;12.10;10.20;;;;;;;;;;5035977;28;20456;-76
2021/09/03 10:09:42;;;;;;;15.33;10.00;;;;;;;;;;5035444;28;20834;-76
2021/09/03 10:12:08;;;;;;;14.63;10.70;;;;;;;;;;5035734;28;20496;-76
2021/09/03 10:14:34;;;;;;;12.77;10.60;;;;;;;;;;5018300;28;20441;-74
2021/09/03 10:17:01;;;;;;;12.20;10.90;;;;;;;;;;5036119;28;20413;-76
2021/09/03 10:19:28;;;;;;;11.30;9.40;;;;;;;;;;5035566;28;20491;-77
2021/09/03 10:22:01;;;;;;;10.73;9.60;;;;;;;;;;5035835;28;20414;-76
2021/09/03 10:24:27;;;;;;;15.40;10.03;;;;;;;;;;5035362;28;20416;-75
2021/09/03 10:26:55;;;;;;;11.33;8.93;;;;;;;;;;5035557;28;20483;-76
2021/09/03 10:29:25;;;;;;;10.67;9.07;;;;;;;;;;5035178;28;20424;-77
2021/09/03 10:32:10;;;;;;;9.37;8.50;;;;;;;;;;5035669;28;20405;-75
2021/09/03 10:34:43;;;;;;;11.33;8.00;;;;;;;;;;5035569;28;20436;-76
2021/09/03 10:37:14;;;;;;;11.70;9.17;;;;;;;;;;5035468;28;20486;-76
2021/09/03 10:39:43;;;;;;;11.47;8.87;;;;;;;;;;5035057;28;20460;-75
2021/09/03 10:42:09;;;;;;;9.67;8.00;;;;;;;;;;5035689;28;20421;-75
2021/09/03 10:44:54;;;;;;;8.80;7.40;;;;;;;;;;5035425;28;20463;-76
2021/09/03 10:47:30;;;;;;;8.70;7.80;;;;;;;;;;5035305;28;20456;-75
2021/09/03 10:49:56;;;;;;;8.17;6.90;;;;;;;;;;5035126;28;20420;-77
2021/09/03 10:52:22;;;;;;;6.97;6.27;;;;;;;;;;5035384;28;20400;-79
2021/09/03 10:54:48;;;;;;;7.73;6.93;;;;;;;;;;5035339;28;20974;-78
2021/09/03 10:57:17;;;;;;;9.47;6.20;;;;;;;;;;5034782;28;20483;-79
2021/09/03 11:00:02;;;;;;;8.63;7.20;;;;;;;;;;5033402;28;20443;-78
2021/09/03 11:02:28;;;;;;;7.30;6.07;;;;;;;;;;5036064;28;20408;-77
2021/09/03 11:05:09;;;;;;;8.57;6.20;;;;;;;;;;5036043;28;20409;-77
2021/09/03 11:07:42;;;;;;;7.47;5.93;;;;;;;;;;5035304;28;20460;-79
2021/09/03 11:10:15;;;;;;;7.33;6.03;;;;;;;;;;5034791;28;20522;-78
2021/09/03 11:12:48;;;;;;;6.57;5.47;;;;;;;;;;5034994;28;20412;-77
2021/09/03 11:15:14;;;;;;;6.57;6.07;;;;;;;;;;5035036;28;20416;-78
2021/09/03 11:17:40;;;;;;;6.03;5.50;;;;;;;;;;5035104;28;20424;-76
2021/09/03 11:20:06;;;;;;;5.27;4.77;;;;;;;;;;5034262;28;20521;-76
2021/09/03 11:22:36;;;;;;;6.43;4.73;;;;;;;;;;5034587;28;20845;-76
2021/09/03 11:25:06;;;;;;;5.37;4.70;;;;;;;;;;5034571;28;20738;-75
2021/09/03 11:27:33;;;;;;;8.40;5.10;;;;;;;;;;5034522;28;20508;-76
2021/09/03 11:30:01;;;;;;;7.53;4.87;;;;;;;;;;5034228;28;20441;-76
2021/09/03 11:32:36;;;;;;;5.40;4.90;;;;;;;;;;5034485;28;20401;-75
2021/09/03 11:35:12;;;;;;;5.93;5.33;;;;;;;;;;5034438;28;20796;-76
2021/09/03 11:37:40;;;;;;;6.13;4.57;;;;;;;;;;5034472;28;20420;-76
2021/09/03 11:40:32;;;;;;;4.90;3.30;;;;;;;;;;5033962;28;20459;-76
2021/09/03 11:42:59;;;;;;;5.77;5.17;;;;;;;;;;5029941;28;20463;-75
2021/09/03 11:45:29;;;;;;;6.00;4.70;;;;;;;;;;5034193;28;20821;-76
2021/09/03 11:47:57;;;;;;;4.83;4.10;;;;;;;;;;5034336;28;20907;-78
2021/09/03 11:50:37;;;;;;;5.30;4.80;;;;;;;;;;5033511;28;20946;-78
2021/09/03 11:53:05;;;;;;;4.50;4.07;;;;;;;;;;5034289;28;20405;-76
2021/09/03 11:55:38;;;;;;;4.70;4.10;;;;;;;;;;5034261;28;20405;-79
2021/09/03 11:58:14;;;;;;;5.43;4.93;;;;;;;;;;5034281;28;20408;-79
2021/09/03 12:00:45;;;;;;;5.53;4.70;;;;;;;;;;5033776;28;20516;-77
2021/09/03 12:03:15;;;;;;;4.73;4.33;;;;;;;;;;5034013;28;20763;-78
2021/09/03 12:05:43;;;;;;;4.47;4.07;;;;;;;;;;5034045;28;20423;-76
2021/09/03 12:08:24;;;;;;;4.60;4.20;;;;;;;;;;5033710;28;20519;-77
2021/09/03 12:10:50;;;;;;;5.77;4.67;;;;;;;;;;5032871;28;20831;-78
2021/09/03 12:13:20;;;;;;;5.43;4.50;;;;;;;;;;5033664;28;20412;-77
2021/09/03 12:15:47;;;;;;;5.17;4.67;;;;;;;;;;5033766;28;20409;-79
2021/09/03 12:18:19;;;;;;;4.97;4.57;;;;;;;;;;5033922;28;20953;-77
2021/09/03 12:20:53;;;;;;;6.00;4.90;;;;;;;;;;5033325;28;20452;-78
2021/09/03 12:23:19;;;;;;;5.10;4.60;;;;;;;;;;5034028;28;20397;-79
2021/09/03 12:25:45;;;;;;;5.23;4.63;;;;;;;;;;5033878;28;20409;-80
2021/09/03 12:28:13;;;;;;;5.77;4.90;;;;;;;;;;5033919;28;20794;-79
2021/09/03 12:30:39;;;;;;;4.73;4.33;;;;;;;;;;5033335;28;20433;-80
2021/09/03 12:33:43;;;;;;;5.43;4.93;;;;;;;;;;5033499;28;21021;-81
2021/09/03 12:36:11;;;;;;;6.30;5.23;;;;;;;;;;4956416;28;20411;-79
2021/09/03 12:38:40;;;;;;;5.53;5.00;;;;;;;;;;4972545;28;20419;-80
2021/09/03 12:41:07;;;;;;;7.17;5.27;;;;;;;;;;5003036;28;20468;-81
2021/09/03 12:43:33;;;;;;;5.07;4.57;;;;;;;;;;5033452;28;20409;-79
2021/09/03 12:46:05;;;;;;;6.80;5.37;;;;;;;;;;5033376;28;20487;-78
2021/09/03 12:48:31;;;;;;;5.90;4.80;;;;;;;;;;5033022;28;20514;-78
2021/09/03 12:50:57;;;;;;;4.90;4.40;;;;;;;;;;5032925;28;20472;-76
2021/09/03 12:53:24;;;;;;;3.80;3.50;;;;;;;;;;5033129;28;20423;-76
2021/09/03 12:55:50;;;;;;;8.00;4.73;;;;;;;;;;5033161;28;20421;-76
2021/09/03 12:58:16;;;;;;;6.80;4.57;;;;;;;;;;5033277;28;20409;-76
2021/09/03 13:00:43;;;;;;;6.53;4.90;;;;;;;;;;5032868;28;20487;-77
2021/09/03 13:03:09;;;;;;;5.37;4.97;;;;;;;;;;5033115;28;20417;-76
2021/09/03 13:05:36;;;;;;;6.50;5.30;;;;;;;;;;5033316;28;20413;-76
2021/09/03 13:08:03;;;;;;;5.33;4.70;;;;;;;;;;5033012;28;20575;-77
2021/09/03 13:10:29;;;;;;;5.20;4.70;;;;;;;;;;5032360;28;20431;-78
2021/09/03 13:12:55;;;;;;;5.57;5.07;;;;;;;;;;5033269;28;20967;-75
2021/09/03 13:15:22;;;;;;;4.10;3.80;;;;;;;;;;5033061;28;20773;-76
2021/09/03 13:17:48;;;;;;;5.50;5.00;;;;;;;;;;5032703;28;20425;-76
2021/09/03 13:20:15;;;;;;;5.87;4.40;;;;;;;;;;5032001;28;20980;-76
2021/09/03 13:22:41;;;;;;;4.93;4.30;;;;;;;;;;5012525;28;20436;-76
2021/09/03 13:25:07;;;;;;;5.03;4.63;;;;;;;;;;5036935;28;20428;-75
2021/09/03 13:27:33;;;;;;;5.80;5.30;;;;;;;;;;5036732;28;20821;-77
2021/09/03 13:29:59;;;;;;;5.13;4.63;;;;;;;;;;5036504;28;20514;-76
2021/09/03 13:32:25;;;;;;;5.23;4.70;;;;;;;;;;5036633;28;20417;-76
2021/09/03 13:34:51;;;;;;;5.47;4.97;;;;;;;;;;5036722;28;20504;-77
2021/09/03 13:37:18;;;;;;;6.80;5.13;;;;;;;;;;5036500;28;20443;-76
2021/09/03 13:39:46;;;;;;;5.20;4.70;;;;;;;;;;5036086;28;20444;-76
2021/09/03 13:42:12;;;;;;;5.03;4.63;;;;;;;;;;5036489;28;20504;-77
2021/09/03 13:44:38;;;;;;;5.80;5.30;;;;;;;;;;5036350;28;20490;-77
2021/09/03 13:47:04;;;;;;;6.87;4.93;;;;;;;;;;5036319;28;20492;-77
2021/09/03 13:49:30;;;;;;;5.23;4.73;;;;;;;;;;5035954;28;20417;-76
2021/09/03 13:51:56;;;;;;;5.23;4.77;;;;;;;;;;5036329;28;20955;-76
2021/09/03 13:54:22;;;;;;;4.83;4.43;;;;;;;;;;5036272;28;20444;-77
2021/09/03 13:56:48;;;;;;;4.87;4.47;;;;;;;;;;5018361;28;20773;-76
2021/09/03 13:59:14;;;;;;;4.97;4.57;;;;;;;;;;5036412;28;20529;-79
2021/09/03 14:01:41;;;;;;;5.40;4.90;;;;;;;;;;5036731;28;20413;-77
2021/09/03 14:04:07;;;;;;;6.90;5.07;;;;;;;;;;5036348;28;20495;-76
2021/09/03 14:06:36;;;;;;;4.87;4.47;;;;;;;;;;5018507;28;20468;-78
2021/09/03 14:09:03;;;;;;;5.67;5.07;;;;;;;;;;5035845;28;20926;-79
2021/09/03 14:11:30;;;;;;;5.73;5.20;;;;;;;;;;5036094;28;21227;-78
2021/09/03 14:13:56;;;;;;;5.43;4.80;;;;;;;;;;5036155;28;20405;-78
2021/09/03 14:16:22;;;;;;;5.50;5.00;;;;;;;;;;5036078;28;20504;-78
2021/09/03 14:18:48;;;;;;;6.20;4.63;;;;;;;;;;5038471;28;20920;-77
2021/09/03 14:21:14;;;;;;;6.20;4.97;;;;;;;;;;5035881;28;20838;-77
2021/09/03 14:23:40;;;;;;;4.80;4.17;;;;;;;;;;5035921;28;20507;-77